Mars — XPC8385 — position and weather

sailwx.info

Track history (hours):
 
Tides and Currents Weather Stations Pressure Air Temp Water Temp Dewpoint Dewpoint Depression Visibility Wind Speed Wind Dir Waves Ship Positions

Mars

Last reported at 2015-Feb-27 05:18 UTC. Time now 2015-Feb-27 05:56 UTC.
Position N 55°17' E 014°48'.

Length 14 m; draft 1.7 m.

Type: Pilot. MMSI: 219001058.

Date/timePositionNaut miles runAvg speedWind from/ knotsBaromVisibWave heightAir tempDewpointWater temp
2015-Feb-27 05:18N 55°17' E 014°48'0 0.0
2015-Feb-27 04:18N 55°17' E 014°48'0 0.0
2015-Feb-27 03:12N 55°17' E 014°48'0 0.0
2015-Feb-27 02:12N 55°17' E 014°48'0 0.0
2015-Feb-27 01:18N 55°17' E 014°48'0 0.0
2015-Feb-26 23:24N 55°17' E 014°48'0 0.0
2015-Feb-26 22:18N 55°17' E 014°48'0 0.0
2015-Feb-26 19:18N 55°17' E 014°48'3 1.8
2015-Feb-26 17:34N 55°20' E 014°49'3 2.8
2015-Feb-26 16:25N 55°17' E 014°48'0 0.0
2015-Feb-26 15:13N 55°17' E 014°48'0 0.0
2015-Feb-26 14:28N 55°17' E 014°48'0 0.3
2015-Feb-26 13:33N 55°17' E 014°48'0 0.1
2015-Feb-26 11:28N 55°17' E 014°48'0 0.0
2015-Feb-26 08:28N 55°17' E 014°48'0 0.0
2015-Feb-26 07:28N 55°17' E 014°48'2 2.3
2015-Feb-26 06:33N 55°19' E 014°47'2 1.9
2015-Feb-26 05:29N 55°17' E 014°48'0 0.0
2015-Feb-26 04:17N 55°17' E 014°48'0 0.0
2015-Feb-26 02:17N 55°17' E 014°48'0 0.0
2015-Feb-26 01:29N 55°17' E 014°48'0 0.0
2015-Feb-26 00:29N 55°17' E 014°48'0 0.0
2015-Feb-25 23:29N 55°17' E 014°48'0 0.0
2015-Feb-25 22:29N 55°17' E 014°48'0 0.0
2015-Feb-25 21:29N 55°17' E 014°48'0 0.0
2015-Feb-25 20:23N 55°17' E 014°48'0 0.0
2015-Feb-25 19:23N 55°17' E 014°48'0 0.0
2015-Feb-25 18:29N 55°17' E 014°48'0 0.0
2015-Feb-25 17:23N 55°17' E 014°48'3 3.2
2015-Feb-25 16:29N 55°19' E 014°50'3 2.4
2015-Feb-25 15:17N 55°17' E 014°48'0 0.0
2015-Feb-25 14:29N 55°17' E 014°48'0 0.0
2015-Feb-25 13:23N 55°17' E 014°48'0 0.0
2015-Feb-25 11:23N 55°17' E 014°48'0 0.0
2015-Feb-25 10:29N 55°17' E 014°48'0 0.0
2015-Feb-25 09:29N 55°17' E 014°48'0 0.0
2015-Feb-25 08:23N 55°17' E 014°48'0 0.0
2015-Feb-25 07:29N 55°17' E 014°48'0 0.0
2015-Feb-25 06:17N 55°17' E 014°48'0 0.0
2015-Feb-25 05:23N 55°17' E 014°48'0 0.0
2015-Feb-25 04:23N 55°17' E 014°48'3 4.1
2015-Feb-25 03:33N 55°19' E 014°52'3 3.2
2015-Feb-25 02:30N 55°17' E 014°48'0 0.0
2015-Feb-25 01:18N 55°17' E 014°48'0 0.0
2015-Feb-25 00:24N 55°17' E 014°48'0 0.0
2015-Feb-24 23:30N 55°17' E 014°48'0 0.0
2015-Feb-24 22:12N 55°17' E 014°48'0 0.0
2015-Feb-24 21:24N 55°17' E 014°48'0 0.0
2015-Feb-24 20:24N 55°17' E 014°48'0 0.0
2015-Feb-24 19:18N 55°17' E 014°48'0 0.0
2015-Feb-24 18:30N 55°17' E 014°48'0 0.0
2015-Feb-24 17:12N 55°17' E 014°48'0 0.0
2015-Feb-24 16:30N 55°17' E 014°48'0 0.0
2015-Feb-24 14:12N 55°17' E 014°48'3 5.0
2015-Feb-24 13:33N 55°19' E 014°52'3 2.1
2015-Feb-24 12:04N 55°17' E 014°48'0 0.0
2015-Feb-24 11:10N 55°17' E 014°48'0 0.0
2015-Feb-24 10:28N 55°17' E 014°48'0 0.0
2015-Feb-24 08:16N 55°17' E 014°48'0 0.0
2015-Feb-24 07:28N 55°17' E 014°48'0 0.0
2015-Feb-24 06:28N 55°17' E 014°48'0 0.0
2015-Feb-24 05:28N 55°17' E 014°48'0 0.0
2015-Feb-24 04:22N 55°17' E 014°48'0 0.0
2015-Feb-24 03:22N 55°17' E 014°48'0 0.0
2015-Feb-24 02:21N 55°17' E 014°48'0 0.0
2015-Feb-24 01:33N 55°17' E 014°48'0 0.0
2015-Feb-24 00:21N 55°17' E 014°48'0 0.2
2015-Feb-23 23:09N 55°17' E 014°48'0 0.4
2015-Feb-23 22:24N 55°17' E 014°48'0 0.0
2015-Feb-23 20:30N 55°17' E 014°48'0 0.0
2015-Feb-23 19:12N 55°17' E 014°48'0 0.0
2015-Feb-23 18:30N 55°17' E 014°48'0 0.1
2015-Feb-23 17:34N 55°17' E 014°48'0 0.1
2015-Feb-23 16:30N 55°17' E 014°48'0 0.0
2015-Feb-23 15:18N 55°17' E 014°48'0 0.0
2015-Feb-23 14:12N 55°17' E 014°48'0 0.0
2015-Feb-23 12:24N 55°17' E 014°48'0 0.0
2015-Feb-23 11:18N 55°17' E 014°48'0 0.0
2015-Feb-23 10:12N 55°17' E 014°48'0 0.0
2015-Feb-23 09:24N 55°17' E 014°48'0 0.0
2015-Feb-23 08:13N 55°17' E 014°48'0 0.0
2015-Feb-23 07:25N 55°17' E 014°48'0 0.0
2015-Feb-23 06:31N 55°17' E 014°48'0 0.0
2015-Feb-23 05:31N 55°17' E 014°48'0 0.0
2015-Feb-23 04:31N 55°17' E 014°48'0 0.0
2015-Feb-23 03:13N 55°17' E 014°48'0 0.0
2015-Feb-23 02:31N 55°17' E 014°48'0 0.0
2015-Feb-23 01:31N 55°17' E 014°48'0 0.0
2015-Feb-23 00:31N 55°17' E 014°48'0 0.0
2015-Feb-22 23:31N 55°17' E 014°48'0 0.0
2015-Feb-22 22:25N 55°17' E 014°48'0 0.0
2015-Feb-22 21:25N 55°17' E 014°48'3 3.6
2015-Feb-22 20:33N 55°19' E 014°52'3 3.1
2015-Feb-22 19:33N 55°17' E 014°48'0 0.0
2015-Feb-22 18:33N 55°17' E 014°48'0 0.0
2015-Feb-22 17:33N 55°17' E 014°48'0 0.0
2015-Feb-22 16:21N 55°17' E 014°48'0 0.0
2015-Feb-22 15:33N 55°17' E 014°48'0 0.0
2015-Feb-22 14:33N 55°17' E 014°48'2 2.2
2015-Feb-22 13:33N 55°18' E 014°51'2 2.0
2015-Feb-22 12:30N 55°17' E 014°48'0 0.0
2015-Feb-22 11:18N 55°17' E 014°48'0 0.0
2015-Feb-22 10:24N 55°17' E 014°48'0 0.0
2015-Feb-22 09:30N 55°17' E 014°48'0 0.1
2015-Feb-22 08:33N 55°17' E 014°48'0 0.1
2015-Feb-22 07:14N 55°17' E 014°48'0 0.0
2015-Feb-22 06:32N 55°17' E 014°48'0 0.0
2015-Feb-22 05:26N 55°17' E 014°48'0 0.0
2015-Feb-22 04:14N 55°17' E 014°48'0 0.0
2015-Feb-22 03:26N 55°17' E 014°48'0 0.0
2015-Feb-22 02:26N 55°17' E 014°48'0 0.0
2015-Feb-22 01:14N 55°17' E 014°48'0 0.0
2015-Feb-22 00:26N 55°17' E 014°48'0 0.0
2015-Feb-21 23:20N 55°17' E 014°48'0 0.0
2015-Feb-21 22:26N 55°17' E 014°48'0 0.0
2015-Feb-21 21:12N 55°17' E 014°48'0 0.0
2015-Feb-21 19:18N 55°17' E 014°48'0 0.0
2015-Feb-21 18:30N 55°17' E 014°48'0 0.0
2015-Feb-21 17:18N 55°17' E 014°48'0 0.0
2015-Feb-21 16:18N 55°17' E 014°48'2 2.8
2015-Feb-21 15:28N 55°19' E 014°46'2 2.5
2015-Feb-21 14:33N 55°17' E 014°48'0 0.0
2015-Feb-21 13:33N 55°17' E 014°48'0 0.0
2015-Feb-21 12:33N 55°17' E 014°48'0 0.0
2015-Feb-21 11:33N 55°17' E 014°48'0 0.0
2015-Feb-21 09:33N 55°17' E 014°48'0 0.0
2015-Feb-21 08:03N 55°17' E 014°48'0 0.0
2015-Feb-21 07:33N 55°17' E 014°48'0 0.0
2015-Feb-21 06:22N 55°17' E 014°48'0 0.0
2015-Feb-21 05:28N 55°17' E 014°48'0 0.0
2015-Feb-21 04:28N 55°17' E 014°48'0 0.0
2015-Feb-21 03:22N 55°17' E 014°48'0 0.0
2015-Feb-21 02:22N 55°17' E 014°48'0 0.0
2015-Feb-21 01:28N 55°17' E 014°48'0 0.0
2015-Feb-21 00:22N 55°17' E 014°48'0 0.0
2015-Feb-20 23:28N 55°17' E 014°48'1 0.8
2015-Feb-20 22:33N 55°17' E 014°49'1 0.7
2015-Feb-20 21:29N 55°17' E 014°48'0 0.0
2015-Feb-20 20:23N 55°17' E 014°48'0 0.0
2015-Feb-20 19:29N 55°17' E 014°48'0 0.0
2015-Feb-20 18:17N 55°17' E 014°48'3 3.7
2015-Feb-20 17:33N 55°19' E 014°49'3 2.2
2015-Feb-20 16:18N 55°17' E 014°48'0 0.0
2015-Feb-20 15:19N 55°17' E 014°48'0 0.0
2015-Feb-20 14:19N 55°17' E 014°48'0 0.0
2015-Feb-20 13:31N 55°17' E 014°48'0 0.0
2015-Feb-20 12:31N 55°17' E 014°48'0 0.0
2015-Feb-20 11:33N 55°17' E 014°48'0 0.0
2015-Feb-20 10:33N 55°17' E 014°48'0 0.0
2015-Feb-20 09:33N 55°17' E 014°48'0 0.0
2015-Feb-20 08:33N 55°17' E 014°48'0 0.0
2015-Feb-20 07:33N 55°17' E 014°48'0 0.0
2015-Feb-20 06:21N 55°17' E 014°48'0 0.0
2015-Feb-20 05:33N 55°17' E 014°48'0 0.0
2015-Feb-20 04:27N 55°17' E 014°48'0 0.0
2015-Feb-20 03:33N 55°17' E 014°48'0 0.0
2015-Feb-20 02:09N 55°17' E 014°48'1 1.3
2015-Feb-20 01:33N 55°17' E 014°49'1 0.4
2015-Feb-19 23:33N 55°17' E 014°48'0 0.0
2015-Feb-19 22:33N 55°17' E 014°48'0 0.0
2015-Feb-19 21:33N 55°17' E 014°48'0 0.0
2015-Feb-19 20:33N 55°17' E 014°48'0 0.5
2015-Feb-19 19:33N 55°17' E 014°49'0 0.4
2015-Feb-19 18:26N 55°17' E 014°48'0 0.0
2015-Feb-19 17:28N 55°17' E 014°48'0 0.0
2015-Feb-19 16:16N 55°17' E 014°48'0 0.0
2015-Feb-19 15:34N 55°17' E 014°48'1 1.4
2015-Feb-19 14:33N 55°17' E 014°51'1 1.1
2015-Feb-19 13:13N 55°17' E 014°48'0 0.0
2015-Feb-19 12:31N 55°17' E 014°48'0 0.0
2015-Feb-19 11:19N 55°17' E 014°48'0 0.0
2015-Feb-19 10:31N 55°17' E 014°48'0 0.0
2015-Feb-19 09:31N 55°17' E 014°48'0 0.0
2015-Feb-19 08:33N 55°17' E 014°48'0 0.0
2015-Feb-19 07:30N 55°17' E 014°48'0 0.0
2015-Feb-19 06:30N 55°17' E 014°48'0 0.0
2015-Feb-19 04:24N 55°17' E 014°48'0 0.0
2015-Feb-19 03:30N 55°17' E 014°48'0 0.0
2015-Feb-19 02:30N 55°17' E 014°48'0 0.0
2015-Feb-19 00:30N 55°17' E 014°48'0 0.0
2015-Feb-18 22:30N 55°17' E 014°48'0 0.0
2015-Feb-18 21:24N 55°17' E 014°48'0 0.0
2015-Feb-18 20:30N 55°17' E 014°48'0 0.0
2015-Feb-18 19:30N 55°17' E 014°48'0 0.0
2015-Feb-18 18:30N 55°17' E 014°48'0 0.0
2015-Feb-18 17:30N 55°17' E 014°48'0 0.0
2015-Feb-18 16:30N 55°17' E 014°48'0 0.0
2015-Feb-18 15:30N 55°17' E 014°48'0 0.0
2015-Feb-18 14:06N 55°17' E 014°48'0 0.0
2015-Feb-18 13:29N 55°17' E 014°48'0 0.0
2015-Feb-18 12:23N 55°17' E 014°48'0 0.0
2015-Feb-18 11:17N 55°17' E 014°48'0 0.0
2015-Feb-18 10:23N 55°17' E 014°48'0 0.0
2015-Feb-18 09:23N 55°17' E 014°48'0 0.0
2015-Feb-18 08:29N 55°17' E 014°48'0 0.0
2015-Feb-18 07:29N 55°17' E 014°48'0 0.0
2015-Feb-18 06:23N 55°17' E 014°48'0 0.0
2015-Feb-18 05:29N 55°17' E 014°48'0 0.0
2015-Feb-18 04:29N 55°17' E 014°48'0 0.0
2015-Feb-18 03:29N 55°17' E 014°48'0 0.0
2015-Feb-18 02:29N 55°17' E 014°48'0 0.0
2015-Feb-18 01:28N 55°17' E 014°48'0 0.0
2015-Feb-18 00:22N 55°17' E 014°48'0 0.0
2015-Feb-17 23:22N 55°17' E 014°48'0 0.0
2015-Feb-17 22:28N 55°17' E 014°48'0 0.0
2015-Feb-17 21:28N 55°17' E 014°48'0 0.0
2015-Feb-17 20:28N 55°17' E 014°48'0 0.0
2015-Feb-17 19:28N 55°17' E 014°48'0 0.0
2015-Feb-17 17:33N 55°17' E 014°48'0 0.0
2015-Feb-17 16:27N 55°17' E 014°48'0 0.0
2015-Feb-17 15:09N 55°17' E 014°48'0 0.0
2015-Feb-17 14:33N 55°17' E 014°48'0 0.0
2015-Feb-17 13:21N 55°17' E 014°48'0 0.0
2015-Feb-17 12:15N 55°17' E 014°48'0 0.0
2015-Feb-17 11:21N 55°17' E 014°48'0 0.0
2015-Feb-17 10:27N 55°17' E 014°48'0 0.0
2015-Feb-17 09:33N 55°17' E 014°48'0 0.0
2015-Feb-17 08:33N 55°17' E 014°48'0 0.0
2015-Feb-17 07:33N 55°17' E 014°48'1 0.7
2015-Feb-17 06:33N 55°17' E 014°48'2 1.5
2015-Feb-17 05:30N 55°17' E 014°45'  
Track history (hours):
 
Tides and Currents Weather Stations Pressure Air Temp Water Temp Dewpoint Dewpoint Depression Visibility Wind Speed Wind Dir Waves Ship Positions

Mars

Last reported at 2015-Feb-27 05:18 UTC. Time now 2015-Feb-27 05:56 UTC.
Position N 55°17' E 014°48'.

Length 14 m; draft 1.7 m.

Type: Pilot. MMSI: 219001058.

Date/timePositionNaut miles runAvg speedWind from/ knotsBaromVisibWave heightAir tempDewpointWater temp
2015-Feb-27 05:18N 55°17' E 014°48'0 0.0
2015-Feb-27 04:18N 55°17' E 014°48'0 0.0
2015-Feb-27 03:12N 55°17' E 014°48'0 0.0
2015-Feb-27 02:12N 55°17' E 014°48'0 0.0
2015-Feb-27 01:18N 55°17' E 014°48'0 0.0
2015-Feb-26 23:24N 55°17' E 014°48'0 0.0
2015-Feb-26 22:18N 55°17' E 014°48'0 0.0
2015-Feb-26 19:18N 55°17' E 014°48'3 1.8
2015-Feb-26 17:34N 55°20' E 014°49'3 2.8
2015-Feb-26 16:25N 55°17' E 014°48'0 0.0
2015-Feb-26 15:13N 55°17' E 014°48'0 0.0
2015-Feb-26 14:28N 55°17' E 014°48'0 0.3
2015-Feb-26 13:33N 55°17' E 014°48'0 0.1
2015-Feb-26 11:28N 55°17' E 014°48'0 0.0
2015-Feb-26 08:28N 55°17' E 014°48'0 0.0
2015-Feb-26 07:28N 55°17' E 014°48'2 2.3
2015-Feb-26 06:33N 55°19' E 014°47'2 1.9
2015-Feb-26 05:29N 55°17' E 014°48'0 0.0
2015-Feb-26 04:17N 55°17' E 014°48'0 0.0
2015-Feb-26 02:17N 55°17' E 014°48'0 0.0
2015-Feb-26 01:29N 55°17' E 014°48'0 0.0
2015-Feb-26 00:29N 55°17' E 014°48'0 0.0
2015-Feb-25 23:29N 55°17' E 014°48'0 0.0
2015-Feb-25 22:29N 55°17' E 014°48'0 0.0
2015-Feb-25 21:29N 55°17' E 014°48'0 0.0
2015-Feb-25 20:23N 55°17' E 014°48'0 0.0
2015-Feb-25 19:23N 55°17' E 014°48'0 0.0
2015-Feb-25 18:29N 55°17' E 014°48'0 0.0
2015-Feb-25 17:23N 55°17' E 014°48'3 3.2
2015-Feb-25 16:29N 55°19' E 014°50'3 2.4
2015-Feb-25 15:17N 55°17' E 014°48'0 0.0
2015-Feb-25 14:29N 55°17' E 014°48'0 0.0
2015-Feb-25 13:23N 55°17' E 014°48'0 0.0
2015-Feb-25 11:23N 55°17' E 014°48'0 0.0
2015-Feb-25 10:29N 55°17' E 014°48'0 0.0
2015-Feb-25 09:29N 55°17' E 014°48'0 0.0
2015-Feb-25 08:23N 55°17' E 014°48'0 0.0
2015-Feb-25 07:29N 55°17' E 014°48'0 0.0
2015-Feb-25 06:17N 55°17' E 014°48'0 0.0
2015-Feb-25 05:23N 55°17' E 014°48'0 0.0
2015-Feb-25 04:23N 55°17' E 014°48'3 4.1
2015-Feb-25 03:33N 55°19' E 014°52'3 3.2
2015-Feb-25 02:30N 55°17' E 014°48'0 0.0
2015-Feb-25 01:18N 55°17' E 014°48'0 0.0
2015-Feb-25 00:24N 55°17' E 014°48'0 0.0
2015-Feb-24 23:30N 55°17' E 014°48'0 0.0
2015-Feb-24 22:12N 55°17' E 014°48'0 0.0
2015-Feb-24 21:24N 55°17' E 014°48'0 0.0
2015-Feb-24 20:24N 55°17' E 014°48'0 0.0
2015-Feb-24 19:18N 55°17' E 014°48'0 0.0
2015-Feb-24 18:30N 55°17' E 014°48'0 0.0
2015-Feb-24 17:12N 55°17' E 014°48'0 0.0
2015-Feb-24 16:30N 55°17' E 014°48'0 0.0
2015-Feb-24 14:12N 55°17' E 014°48'3 5.0
2015-Feb-24 13:33N 55°19' E 014°52'3 2.1
2015-Feb-24 12:04N 55°17' E 014°48'0 0.0
2015-Feb-24 11:10N 55°17' E 014°48'0 0.0
2015-Feb-24 10:28N 55°17' E 014°48'0 0.0
2015-Feb-24 08:16N 55°17' E 014°48'0 0.0
2015-Feb-24 07:28N 55°17' E 014°48'0 0.0
2015-Feb-24 06:28N 55°17' E 014°48'0 0.0
2015-Feb-24 05:28N 55°17' E 014°48'0 0.0
2015-Feb-24 04:22N 55°17' E 014°48'0 0.0
2015-Feb-24 03:22N 55°17' E 014°48'0 0.0
2015-Feb-24 02:21N 55°17' E 014°48'0 0.0
2015-Feb-24 01:33N 55°17' E 014°48'0 0.0
2015-Feb-24 00:21N 55°17' E 014°48'0 0.2
2015-Feb-23 23:09N 55°17' E 014°48'0 0.4
2015-Feb-23 22:24N 55°17' E 014°48'0 0.0
2015-Feb-23 20:30N 55°17' E 014°48'0 0.0
2015-Feb-23 19:12N 55°17' E 014°48'0 0.0
2015-Feb-23 18:30N 55°17' E 014°48'0 0.1
2015-Feb-23 17:34N 55°17' E 014°48'0 0.1
2015-Feb-23 16:30N 55°17' E 014°48'0 0.0
2015-Feb-23 15:18N 55°17' E 014°48'0 0.0
2015-Feb-23 14:12N 55°17' E 014°48'0 0.0
2015-Feb-23 12:24N 55°17' E 014°48'0 0.0
2015-Feb-23 11:18N 55°17' E 014°48'0 0.0
2015-Feb-23 10:12N 55°17' E 014°48'0 0.0
2015-Feb-23 09:24N 55°17' E 014°48'0 0.0
2015-Feb-23 08:13N 55°17' E 014°48'0 0.0
2015-Feb-23 07:25N 55°17' E 014°48'0 0.0
2015-Feb-23 06:31N 55°17' E 014°48'0 0.0
2015-Feb-23 05:31N 55°17' E 014°48'0 0.0
2015-Feb-23 04:31N 55°17' E 014°48'0 0.0
2015-Feb-23 03:13N 55°17' E 014°48'0 0.0
2015-Feb-23 02:31N 55°17' E 014°48'0 0.0
2015-Feb-23 01:31N 55°17' E 014°48'0 0.0
2015-Feb-23 00:31N 55°17' E 014°48'0 0.0
2015-Feb-22 23:31N 55°17' E 014°48'0 0.0
2015-Feb-22 22:25N 55°17' E 014°48'0 0.0
2015-Feb-22 21:25N 55°17' E 014°48'3 3.6
2015-Feb-22 20:33N 55°19' E 014°52'3 3.1
2015-Feb-22 19:33N 55°17' E 014°48'0 0.0
2015-Feb-22 18:33N 55°17' E 014°48'0 0.0
2015-Feb-22 17:33N 55°17' E 014°48'0 0.0
2015-Feb-22 16:21N 55°17' E 014°48'0 0.0
2015-Feb-22 15:33N 55°17' E 014°48'0 0.0
2015-Feb-22 14:33N 55°17' E 014°48'2 2.2
2015-Feb-22 13:33N 55°18' E 014°51'2 2.0
2015-Feb-22 12:30N 55°17' E 014°48'0 0.0
2015-Feb-22 11:18N 55°17' E 014°48'0 0.0
2015-Feb-22 10:24N 55°17' E 014°48'0 0.0
2015-Feb-22 09:30N 55°17' E 014°48'0 0.1
2015-Feb-22 08:33N 55°17' E 014°48'0 0.1
2015-Feb-22 07:14N 55°17' E 014°48'0 0.0
2015-Feb-22 06:32N 55°17' E 014°48'0 0.0
2015-Feb-22 05:26N 55°17' E 014°48'0 0.0
2015-Feb-22 04:14N 55°17' E 014°48'0 0.0
2015-Feb-22 03:26N 55°17' E 014°48'0 0.0
2015-Feb-22 02:26N 55°17' E 014°48'0 0.0
2015-Feb-22 01:14N 55°17' E 014°48'0 0.0
2015-Feb-22 00:26N 55°17' E 014°48'0 0.0
2015-Feb-21 23:20N 55°17' E 014°48'0 0.0
2015-Feb-21 22:26N 55°17' E 014°48'0 0.0
2015-Feb-21 21:12N 55°17' E 014°48'0 0.0
2015-Feb-21 19:18N 55°17' E 014°48'0 0.0
2015-Feb-21 18:30N 55°17' E 014°48'0 0.0
2015-Feb-21 17:18N 55°17' E 014°48'0 0.0
2015-Feb-21 16:18N 55°17' E 014°48'2 2.8
2015-Feb-21 15:28N 55°19' E 014°46'2 2.5
2015-Feb-21 14:33N 55°17' E 014°48'0 0.0
2015-Feb-21 13:33N 55°17' E 014°48'0 0.0
2015-Feb-21 12:33N 55°17' E 014°48'0 0.0
2015-Feb-21 11:33N 55°17' E 014°48'0 0.0
2015-Feb-21 09:33N 55°17' E 014°48'0 0.0
2015-Feb-21 08:03N 55°17' E 014°48'0 0.0
2015-Feb-21 07:33N 55°17' E 014°48'0 0.0
2015-Feb-21 06:22N 55°17' E 014°48'0 0.0
2015-Feb-21 05:28N 55°17' E 014°48'0 0.0
2015-Feb-21 04:28N 55°17' E 014°48'0 0.0
2015-Feb-21 03:22N 55°17' E 014°48'0 0.0
2015-Feb-21 02:22N 55°17' E 014°48'0 0.0
2015-Feb-21 01:28N 55°17' E 014°48'0 0.0
2015-Feb-21 00:22N 55°17' E 014°48'0 0.0
2015-Feb-20 23:28N 55°17' E 014°48'1 0.8
2015-Feb-20 22:33N 55°17' E 014°49'1 0.7
2015-Feb-20 21:29N 55°17' E 014°48'0 0.0
2015-Feb-20 20:23N 55°17' E 014°48'0 0.0
2015-Feb-20 19:29N 55°17' E 014°48'0 0.0
2015-Feb-20 18:17N 55°17' E 014°48'3 3.7
2015-Feb-20 17:33N 55°19' E 014°49'3 2.2
2015-Feb-20 16:18N 55°17' E 014°48'0 0.0
2015-Feb-20 15:19N 55°17' E 014°48'0 0.0
2015-Feb-20 14:19N 55°17' E 014°48'0 0.0
2015-Feb-20 13:31N 55°17' E 014°48'0 0.0
2015-Feb-20 12:31N 55°17' E 014°48'0 0.0
2015-Feb-20 11:33N 55°17' E 014°48'0 0.0
2015-Feb-20 10:33N 55°17' E 014°48'0 0.0
2015-Feb-20 09:33N 55°17' E 014°48'0 0.0
2015-Feb-20 08:33N 55°17' E 014°48'0 0.0
2015-Feb-20 07:33N 55°17' E 014°48'0 0.0
2015-Feb-20 06:21N 55°17' E 014°48'0 0.0
2015-Feb-20 05:33N 55°17' E 014°48'0 0.0
2015-Feb-20 04:27N 55°17' E 014°48'0 0.0
2015-Feb-20 03:33N 55°17' E 014°48'0 0.0
2015-Feb-20 02:09N 55°17' E 014°48'1 1.3
2015-Feb-20 01:33N 55°17' E 014°49'1 0.4
2015-Feb-19 23:33N 55°17' E 014°48'0 0.0
2015-Feb-19 22:33N 55°17' E 014°48'0 0.0
2015-Feb-19 21:33N 55°17' E 014°48'0 0.0
2015-Feb-19 20:33N 55°17' E 014°48'0 0.5
2015-Feb-19 19:33N 55°17' E 014°49'0 0.4
2015-Feb-19 18:26N 55°17' E 014°48'0 0.0
2015-Feb-19 17:28N 55°17' E 014°48'0 0.0
2015-Feb-19 16:16N 55°17' E 014°48'0 0.0
2015-Feb-19 15:34N 55°17' E 014°48'1 1.4
2015-Feb-19 14:33N 55°17' E 014°51'1 1.1
2015-Feb-19 13:13N 55°17' E 014°48'0 0.0
2015-Feb-19 12:31N 55°17' E 014°48'0 0.0
2015-Feb-19 11:19N 55°17' E 014°48'0 0.0
2015-Feb-19 10:31N 55°17' E 014°48'0 0.0
2015-Feb-19 09:31N 55°17' E 014°48'0 0.0
2015-Feb-19 08:33N 55°17' E 014°48'0 0.0
2015-Feb-19 07:30N 55°17' E 014°48'0 0.0
2015-Feb-19 06:30N 55°17' E 014°48'0 0.0
2015-Feb-19 04:24N 55°17' E 014°48'0 0.0
2015-Feb-19 03:30N 55°17' E 014°48'0 0.0
2015-Feb-19 02:30N 55°17' E 014°48'0 0.0
2015-Feb-19 00:30N 55°17' E 014°48'0 0.0
2015-Feb-18 22:30N 55°17' E 014°48'0 0.0
2015-Feb-18 21:24N 55°17' E 014°48'0 0.0
2015-Feb-18 20:30N 55°17' E 014°48'0 0.0
2015-Feb-18 19:30N 55°17' E 014°48'0 0.0
2015-Feb-18 18:30N 55°17' E 014°48'0 0.0
2015-Feb-18 17:30N 55°17' E 014°48'0 0.0
2015-Feb-18 16:30N 55°17' E 014°48'0 0.0
2015-Feb-18 15:30N 55°17' E 014°48'0 0.0
2015-Feb-18 14:06N 55°17' E 014°48'0 0.0
2015-Feb-18 13:29N 55°17' E 014°48'0 0.0
2015-Feb-18 12:23N 55°17' E 014°48'0 0.0
2015-Feb-18 11:17N 55°17' E 014°48'0 0.0
2015-Feb-18 10:23N 55°17' E 014°48'0 0.0
2015-Feb-18 09:23N 55°17' E 014°48'0 0.0
2015-Feb-18 08:29N 55°17' E 014°48'0 0.0
2015-Feb-18 07:29N 55°17' E 014°48'0 0.0
2015-Feb-18 06:23N 55°17' E 014°48'0 0.0
2015-Feb-18 05:29N 55°17' E 014°48'0 0.0
2015-Feb-18 04:29N 55°17' E 014°48'0 0.0
2015-Feb-18 03:29N 55°17' E 014°48'0 0.0
2015-Feb-18 02:29N 55°17' E 014°48'0 0.0
2015-Feb-18 01:28N 55°17' E 014°48'0 0.0
2015-Feb-18 00:22N 55°17' E 014°48'0 0.0
2015-Feb-17 23:22N 55°17' E 014°48'0 0.0
2015-Feb-17 22:28N 55°17' E 014°48'0 0.0
2015-Feb-17 21:28N 55°17' E 014°48'0 0.0
2015-Feb-17 20:28N 55°17' E 014°48'0 0.0
2015-Feb-17 19:28N 55°17' E 014°48'0 0.0
2015-Feb-17 17:33N 55°17' E 014°48'0 0.0
2015-Feb-17 16:27N 55°17' E 014°48'0 0.0
2015-Feb-17 15:09N 55°17' E 014°48'0 0.0
2015-Feb-17 14:33N 55°17' E 014°48'0 0.0
2015-Feb-17 13:21N 55°17' E 014°48'0 0.0
2015-Feb-17 12:15N 55°17' E 014°48'0 0.0
2015-Feb-17 11:21N 55°17' E 014°48'0 0.0
2015-Feb-17 10:27N 55°17' E 014°48'0 0.0
2015-Feb-17 09:33N 55°17' E 014°48'0 0.0
2015-Feb-17 08:33N 55°17' E 014°48'0 0.0
2015-Feb-17 07:33N 55°17' E 014°48'1 0.7
2015-Feb-17 06:33N 55°17' E 014°48'2 1.5
2015-Feb-17 05:30N 55°17' E 014°45'  

Dump ship's entire track history